Time;durP1;ratioP1;P1;durP2;ratioP2;P2;SDS_P1;SDS_P2;PMS_P1;PMS_P2;Temp;Humidity;BMP_temperature;BMP_pressure;BME280_temperature;BME280_humidity;BME280_pressure;Samples;Min_cycle;Max_cycle;Signal;HPM_P1;HPM_P2
2023/05/31 00:01:46;;;;;;;5.95;4.45;;;;;;;16.17;36.04;102018.69;5044437;28;20136;-72
2023/05/31 00:04:14;;;;;;;7.50;4.78;;;;;;;16.16;35.86;102029.84;5046360;28;20060;-73
2023/05/31 00:06:42;;;;;;;6.07;4.35;;;;;;;16.15;35.61;102026.22;5046411;28;20111;-73
2023/05/31 00:09:10;;;;;;;8.45;4.82;;;;;;;16.14;36.27;102026.34;5043429;28;20041;-73
2023/05/31 00:11:37;;;;;;;6.57;4.43;;;;;;;16.14;36.21;102021.72;5047373;28;20450;-73
2023/05/31 00:14:07;;;;;;;6.32;4.50;;;;;;;16.15;35.99;102025.34;5045993;28;20068;-73
2023/05/31 00:16:35;;;;;;;6.95;4.60;;;;;;;16.14;35.71;102031.88;5045147;28;20231;-73
2023/05/31 00:19:06;;;;;;;6.72;4.63;;;;;;;16.12;36.03;102026.50;5045808;28;20041;-73
2023/05/31 00:21:35;;;;;;;6.63;4.60;;;;;;;16.12;36.09;102026.50;5044736;28;20049;-73
2023/05/31 00:24:03;;;;;;;6.80;4.03;;;;;;;16.10;36.28;102034.03;5049058;28;20037;-73
2023/05/31 00:26:31;;;;;;;8.23;5.00;;;;;;;16.08;36.39;102030.56;5046413;28;20463;-73
2023/05/31 00:28:59;;;;;;;6.65;4.70;;;;;;;16.09;36.16;102034.19;5048822;28;20434;-73
2023/05/31 00:31:28;;;;;;;7.32;4.57;;;;;;;16.07;36.04;102019.66;5048764;28;20068;-73
2023/05/31 00:33:56;;;;;;;7.40;4.65;;;;;;;16.05;36.54;102027.22;5044529;28;20160;-73
2023/05/31 00:36:24;;;;;;;6.38;4.45;;;;;;;16.04;36.38;102019.94;5047983;28;20444;-73
2023/05/31 00:38:52;;;;;;;7.10;4.57;;;;;;;16.01;36.45;102022.97;5047755;28;20060;-74
2023/05/31 00:41:20;;;;;;;7.25;4.80;;;;;;;15.98;36.56;102020.50;5047084;28;20053;-74
2023/05/31 00:43:49;;;;;;;7.97;4.57;;;;;;;15.96;36.37;102023.41;5029058;28;20053;-73
2023/05/31 00:46:26;;;;;;;9.05;4.88;;;;;;;15.97;37.01;102025.16;5047950;28;20057;-73
2023/05/31 00:48:56;;;;;;;7.68;4.40;;;;;;;15.94;36.61;102027.31;5048199;28;20090;-73
2023/05/31 00:51:26;;;;;;;6.75;4.30;;;;;;;15.91;36.52;102025.72;5047523;28;20045;-73
2023/05/31 00:53:54;;;;;;;7.60;4.47;;;;;;;15.91;36.19;102033.13;5048847;28;20336;-73
2023/05/31 00:56:22;;;;;;;8.27;4.85;;;;;;;15.87;36.29;102029.78;5028819;28;20072;-72
2023/05/31 00:58:52;;;;;;;8.23;4.88;;;;;;;15.86;36.45;102033.53;5030325;28;20072;-73
2023/05/31 01:01:21;;;;;;;9.32;4.93;;;;;;;15.85;36.76;102029.03;5028485;28;20061;-72
2023/05/31 01:03:50;;;;;;;6.88;4.65;;;;;;;15.84;36.44;102028.16;5048860;28;20140;-73
2023/05/31 01:06:20;;;;;;;8.07;4.85;;;;;;;15.84;36.53;102019.88;5047530;28;20099;-74
2023/05/31 01:08:52;;;;;;;7.78;4.88;;;;;;;15.78;36.73;102023.19;5029268;28;20048;-73
2023/05/31 01:11:30;;;;;;;8.98;5.00;;;;;;;15.83;37.21;102022.81;5027195;28;20132;-73
2023/05/31 01:14:06;;;;;;;8.10;4.60;;;;;;;15.79;37.45;102019.44;5046443;28;20037;-73
2023/05/31 01:16:39;;;;;;;6.90;4.50;;;;;;;15.78;37.31;102017.69;5043348;28;20068;-73
2023/05/31 01:19:16;;;;;;;7.43;4.70;;;;;;;15.78;37.73;102025.97;5044709;28;20033;-74
2023/05/31 01:21:59;;;;;;;7.50;5.00;;;;;;;15.77;37.15;102023.34;5047323;28;20049;-73
2023/05/31 01:24:36;;;;;;;8.10;4.47;;;;;;;15.74;37.42;102026.41;5029235;28;20053;-73
2023/05/31 01:27:07;;;;;;;7.30;4.57;;;;;;;15.74;37.24;102020.88;5047773;28;20533;-73
2023/05/31 01:29:37;;;;;;;8.88;4.65;;;;;;;15.71;36.71;102024.78;5043733;28;20041;-74
2023/05/31 01:32:06;;;;;;;7.68;4.40;;;;;;;15.72;36.98;102031.19;5043482;28;20056;-73
2023/05/31 01:34:34;;;;;;;6.97;4.38;;;;;;;15.72;37.05;102029.28;5044923;28;20412;-73
2023/05/31 01:37:02;;;;;;;6.82;4.25;;;;;;;15.71;36.74;102021.16;5046489;28;20059;-73
2023/05/31 01:39:30;;;;;;;7.22;4.30;;;;;;;15.72;36.58;102026.53;5043260;28;20498;-73
2023/05/31 01:42:01;;;;;;;6.75;4.53;;;;;;;15.73;37.25;102022.75;5026768;28;20052;-73
2023/05/31 01:44:34;;;;;;;7.22;4.18;;;;;;;15.74;37.47;102021.75;5046940;28;20041;-73
2023/05/31 01:47:08;;;;;;;7.00;4.30;;;;;;;15.73;36.75;102022.75;5028871;28;20245;-73
2023/05/31 01:49:37;;;;;;;6.80;4.03;;;;;;;15.70;37.30;102017.50;5025749;28;20068;-73
2023/05/31 01:52:10;;;;;;;6.05;3.88;;;;;;;15.71;36.92;102013.75;5027299;28;20065;-74
2023/05/31 01:54:38;;;;;;;6.05;4.07;;;;;;;15.69;37.31;102021.28;5025473;28;20064;-73
2023/05/31 01:57:08;;;;;;;6.05;3.70;;;;;;;15.69;36.74;102013.00;5028251;28;20036;-73
2023/05/31 01:59:39;;;;;;;7.43;4.40;;;;;;;15.69;37.49;102013.00;5028388;28;20115;-73
2023/05/31 02:02:08;;;;;;;7.10;4.32;;;;;;;15.68;36.81;102013.13;5026424;28;20060;-73
2023/05/31 02:04:36;;;;;;;7.00;4.22;;;;;;;15.67;37.42;102011.41;5029384;28;20045;-73
2023/05/31 02:07:05;;;;;;;7.00;4.47;;;;;;;15.65;37.42;102010.66;5024869;28;20148;-73
2023/05/31 02:09:33;;;;;;;6.18;4.13;;;;;;;15.63;37.00;102010.81;5024418;28;20045;-74
2023/05/31 02:12:02;;;;;;;6.95;3.95;;;;;;;15.62;36.84;102011.81;5027419;28;20041;-73
2023/05/31 02:14:31;;;;;;;6.22;4.57;;;;;;;15.61;37.50;102006.44;5028741;28;20203;-73
2023/05/31 02:17:00;;;;;;;7.03;4.50;;;;;;;15.58;37.38;102010.38;5042827;28;20152;-73
2023/05/31 02:19:28;;;;;;;6.63;4.43;;;;;;;15.56;37.06;102009.63;5045696;28;20380;-73
2023/05/31 02:21:57;;;;;;;6.50;4.30;;;;;;;15.55;37.53;102004.25;5027960;28;20057;-73
2023/05/31 02:24:28;;;;;;;6.10;4.40;;;;;;;15.53;37.03;102004.38;5046238;28;20068;-73
2023/05/31 02:26:56;;;;;;;7.03;3.90;;;;;;;15.50;37.05;102002.78;5044240;28;20045;-74
2023/05/31 02:29:25;;;;;;;7.00;4.30;;;;;;;15.48;37.54;102004.81;5046107;28;20136;-74
2023/05/31 02:31:54;;;;;;;7.30;4.15;;;;;;;15.47;37.67;101999.41;5046160;28;20041;-73
2023/05/31 02:34:23;;;;;;;6.13;3.97;;;;;;;15.48;37.42;102003.94;5046142;28;20048;-73
2023/05/31 02:36:54;;;;;;;7.63;4.53;;;;;;;15.41;37.43;102011.88;5027496;28;20040;-74
2023/05/31 02:39:22;;;;;;;7.03;4.30;;;;;;;15.42;37.50;102015.53;5046018;28;20041;-73
2023/05/31 02:41:49;;;;;;;7.30;4.57;;;;;;;15.41;37.26;102017.41;5042630;28;20098;-73
2023/05/31 02:44:17;;;;;;;5.82;3.83;;;;;;;15.40;37.27;102017.53;5028723;28;20106;-73
2023/05/31 02:46:45;;;;;;;8.13;4.68;;;;;;;15.37;37.35;102009.53;5027802;28;20037;-74
2023/05/31 02:49:13;;;;;;;7.30;4.35;;;;;;;15.35;37.47;102006.91;5028386;28;20041;-73
2023/05/31 02:51:42;;;;;;;6.40;4.05;;;;;;;15.34;37.54;102009.81;5026839;28;20110;-73
2023/05/31 02:54:48;;;;;;;7.97;4.47;;;;;;;15.28;38.15;101996.53;5004484;28;20053;-73
2023/05/31 02:57:21;;;;;;;7.57;4.50;;;;;;;15.24;37.90;102004.22;5026027;28;20133;-73
2023/05/31 02:59:50;;;;;;;6.05;4.53;;;;;;;15.25;37.72;101996.81;5027494;28;20060;-73
2023/05/31 03:02:19;;;;;;;6.70;4.47;;;;;;;15.23;38.04;101999.72;5028136;28;20534;-73
2023/05/31 03:05:08;;;;;;;6.53;4.60;;;;;;;15.21;37.58;102000.84;5038040;28;20095;-73
2023/05/31 03:07:40;;;;;;;7.57;4.65;;;;;;;15.20;37.72;102008.25;5028719;28;20099;-73
2023/05/31 03:10:10;;;;;;;7.95;4.65;;;;;;;15.19;38.35;102003.72;5022604;28;20068;-73
2023/05/31 03:12:38;;;;;;;6.95;4.35;;;;;;;15.16;38.18;101998.50;5028057;28;20466;-73
2023/05/31 03:15:08;;;;;;;8.30;4.75;;;;;;;15.13;38.39;102009.81;5024676;28;20053;-74
2023/05/31 03:17:37;;;;;;;7.40;4.47;;;;;;;15.12;38.02;102000.66;5025544;28;20136;-74
2023/05/31 03:20:08;;;;;;;5.78;4.05;;;;;;;15.11;38.05;102000.78;5023131;28;20037;-73
2023/05/31 03:22:38;;;;;;;;;;;;;;;14.81;39.04;102007.13;5025408;28;20168;-73
2023/05/31 03:25:10;;;;;;;6.53;3.90;;;;;;;15.05;38.46;102001.34;5044777;28;20307;-73
2023/05/31 03:27:38;;;;;;;7.45;4.55;;;;;;;15.06;37.92;102011.38;5028302;28;20045;-73
2023/05/31 03:30:08;;;;;;;6.85;4.05;;;;;;;15.06;38.50;102008.59;5021286;28;20090;-73
2023/05/31 03:32:44;;;;;;;7.07;4.15;;;;;;;15.03;37.89;101997.84;5025796;28;20060;-73
2023/05/31 03:35:12;;;;;;;7.28;4.10;;;;;;;15.01;38.46;102003.47;5027062;28;20044;-73
2023/05/31 03:37:40;;;;;;;6.22;4.07;;;;;;;15.01;38.51;102005.41;5026272;28;20487;-70
2023/05/31 03:40:13;;;;;;;8.55;4.80;;;;;;;15.01;38.64;102008.16;5029846;28;20556;-71
2023/05/31 03:42:41;;;;;;;7.75;4.78;;;;;;;14.96;38.85;102011.28;5029983;28;20115;-70
2023/05/31 03:45:10;;;;;;;8.32;4.68;;;;;;;14.94;38.86;101998.66;5030675;28;20033;-70
2023/05/31 03:47:38;;;;;;;7.20;5.13;;;;;;;14.95;38.35;101997.63;5032917;28;20099;-70
2023/05/31 03:50:06;;;;;;;6.53;4.50;;;;;;;14.94;38.30;102002.28;5048553;28;20053;-70
2023/05/31 03:52:37;;;;;;;7.85;4.63;;;;;;;14.91;38.55;101994.31;5032469;28;20053;-70
2023/05/31 03:55:06;;;;;;;7.30;4.43;;;;;;;14.91;38.51;101996.19;5028600;28;20496;-70
2023/05/31 03:57:35;;;;;;;7.00;4.32;;;;;;;14.92;38.96;101990.53;5040204;28;20048;-70
2023/05/31 04:00:04;;;;;;;6.97;4.63;;;;;;;14.91;38.36;101988.78;5027597;28;20045;-70
2023/05/31 04:02:40;;;;;;;7.35;4.55;;;;;;;14.89;38.44;101996.31;5046006;28;20120;-70
2023/05/31 04:05:23;;;;;;;7.53;4.18;;;;;;;14.90;38.59;101989.78;5030901;28;20459;-70
2023/05/31 04:07:52;;;;;;;7.25;4.38;;;;;;;14.91;38.38;101986.03;5030619;28;20041;-70
2023/05/31 04:10:20;;;;;;;7.63;4.60;;;;;;;14.91;38.51;102002.56;5033386;28;20475;-70
2023/05/31 04:12:49;;;;;;;6.97;4.53;;;;;;;14.93;38.43;101988.66;5031952;28;20063;-70
2023/05/31 04:15:17;;;;;;;6.15;4.75;;;;;;;14.92;38.41;101995.19;5022098;28;20230;-70
2023/05/31 04:17:46;;;;;;;7.70;4.90;;;;;;;14.92;38.45;101998.81;5026664;28;20084;-70
2023/05/31 04:20:14;;;;;;;8.63;5.07;;;;;;;14.92;38.67;101998.81;5027260;28;20045;-70
2023/05/31 04:22:43;;;;;;;8.93;5.03;;;;;;;14.91;38.79;101991.53;5027171;28;20041;-70
2023/05/31 04:25:12;;;;;;;7.25;5.18;;;;;;;14.92;38.54;101993.28;5030070;28;20051;-70
2023/05/31 04:27:42;;;;;;;8.45;5.28;;;;;;;14.92;38.64;102003.44;5031466;28;20044;-70
2023/05/31 04:30:12;;;;;;;8.32;4.93;;;;;;;14.92;39.01;101993.28;5029675;28;20115;-70
2023/05/31 04:32:41;;;;;;;7.40;4.82;;;;;;;14.91;39.17;102009.97;5028237;28;20080;-70
2023/05/31 04:35:10;;;;;;;7.20;4.95;;;;;;;14.92;38.86;102004.31;5030215;28;20492;-70
2023/05/31 04:37:42;;;;;;;7.40;5.25;;;;;;;14.92;39.22;102008.97;5028803;28;20072;-71
2023/05/31 04:40:11;;;;;;;7.43;4.97;;;;;;;14.93;38.98;102017.06;5029882;28;20045;-71
2023/05/31 04:42:40;;;;;;;7.05;4.75;;;;;;;14.93;39.09;102011.56;5030822;28;20076;-71
2023/05/31 04:45:20;;;;;;;8.07;4.95;;;;;;;14.95;39.18;102009.53;5030105;28;20160;-71
2023/05/31 04:47:51;;;;;;;7.43;4.70;;;;;;;14.92;39.25;102018.09;5030504;28;20496;-71
2023/05/31 04:50:20;;;;;;;8.20;5.32;;;;;;;14.91;39.26;102013.59;5027132;28;20072;-71
2023/05/31 04:52:50;;;;;;;9.70;4.90;;;;;;;14.92;38.93;102008.97;5049458;28;20152;-70
2023/05/31 04:55:18;;;;;;;7.30;4.80;;;;;;;14.91;39.28;102004.44;5047049;28;20173;-71
2023/05/31 04:57:46;;;;;;;7.63;4.93;;;;;;;14.91;39.14;102008.09;5030743;28;20045;-71
2023/05/31 05:00:16;;;;;;;7.07;4.50;;;;;;;14.93;39.34;102013.47;5028911;28;20051;-71
2023/05/31 05:03:12;;;;;;;7.07;4.55;;;;;;;14.95;39.63;102011.44;5045079;28;20119;-71
2023/05/31 05:05:41;;;;;;;7.22;4.65;;;;;;;14.99;39.88;102010.16;5029907;28;20336;-71
2023/05/31 05:08:09;;;;;;;7.07;4.38;;;;;;;15.07;40.09;102015.88;5049084;28;20438;-71
2023/05/31 05:10:39;;;;;;;7.47;4.65;;;;;;;15.19;40.13;102017.53;5027776;28;20649;-71
2023/05/31 05:13:07;;;;;;;8.90;5.05;;;;;;;15.33;39.88;102019.94;5048313;28;20386;-71
2023/05/31 05:15:37;;;;;;;7.43;4.57;;;;;;;15.49;39.75;102020.34;5029744;28;20416;-71
2023/05/31 05:18:06;;;;;;;7.38;4.63;;;;;;;15.68;39.38;102026.94;5030813;28;20122;-71
2023/05/31 05:20:37;;;;;;;7.28;4.45;;;;;;;15.90;39.38;102023.97;5025415;28;20084;-71
2023/05/31 05:23:07;;;;;;;7.70;5.20;;;;;;;16.08;39.58;102022.28;5030979;28;20053;-71
2023/05/31 05:25:36;;;;;;;8.45;5.10;;;;;;;16.28;39.32;102020.44;5026253;28;20463;-71
2023/05/31 05:28:04;;;;;;;7.82;5.05;;;;;;;16.46;38.55;102023.38;5027026;28;20033;-71
2023/05/31 05:30:32;;;;;;;9.93;5.15;;;;;;;16.63;38.35;102018.00;5024513;28;20123;-71
2023/05/31 05:33:01;;;;;;;7.22;4.93;;;;;;;16.81;38.32;102018.13;5030698;28;20131;-71
2023/05/31 05:35:29;;;;;;;6.55;4.55;;;;;;;16.98;37.58;102016.53;5028675;28;20052;-69
2023/05/31 05:37:59;;;;;;;7.13;4.50;;;;;;;17.16;37.73;102023.03;5028439;28;20083;-69
2023/05/31 05:40:27;;;;;;;6.85;4.70;;;;;;;17.27;37.73;102025.63;5027498;28;20507;-70
2023/05/31 05:42:55;;;;;;;8.25;5.22;;;;;;;17.43;37.11;102036.06;5030321;28;20053;-70
2023/05/31 05:45:24;;;;;;;6.95;4.53;;;;;;;17.54;36.88;102030.34;5028984;28;20057;-69
2023/05/31 05:47:55;;;;;;;7.05;4.65;;;;;;;17.67;37.28;102030.00;5030271;28;20496;-69
2023/05/31 05:50:24;;;;;;;6.72;4.45;;;;;;;17.80;36.74;102032.47;5028081;28;20074;-69
2023/05/31 05:52:52;;;;;;;9.23;4.70;;;;;;;17.92;36.97;102029.31;5031163;28;20037;-73
2023/05/31 05:55:22;;;;;;;6.88;4.53;;;;;;;18.07;36.31;102032.44;5046037;28;20411;-72
2023/05/31 05:57:51;;;;;;;6.65;4.80;;;;;;;18.15;36.13;102022.31;5029477;28;20041;-72
2023/05/31 06:00:35;;;;;;;7.82;4.40;;;;;;;18.28;36.46;102027.50;5024317;28;20056;-72
2023/05/31 06:03:04;;;;;;;7.43;4.30;;;;;;;18.42;35.85;102028.84;5046589;28;20041;-72
2023/05/31 06:05:32;;;;;;;7.03;4.03;;;;;;;18.51;35.90;102031.56;5028458;28;20459;-72
2023/05/31 06:08:08;;;;;;;7.20;4.70;;;;;;;18.67;35.17;102030.00;5033650;22;20049;-72
2023/05/31 06:10:40;;;;;;;5.93;4.30;;;;;;;18.77;35.65;102034.44;5004885;28;20049;-73
2023/05/31 06:13:12;;;;;;;6.22;4.40;;;;;;;18.83;35.33;102025.47;5005743;28;20049;-72
2023/05/31 06:15:41;;;;;;;6.93;4.18;;;;;;;18.96;35.13;102032.50;5004726;28;20489;-73
2023/05/31 06:18:10;;;;;;;7.35;4.20;;;;;;;19.07;35.42;102032.22;5002108;28;20420;-72
2023/05/31 06:20:42;;;;;;;7.15;4.25;;;;;;;19.15;34.97;102026.75;5003428;28;20136;-71
2023/05/31 06:23:10;;;;;;;8.50;4.28;;;;;;;19.25;34.69;102022.88;4999367;28;20444;-61
2023/05/31 06:25:39;;;;;;;8.05;4.50;;;;;;;19.40;34.57;102019.47;4996919;28;20409;-61
2023/05/31 06:28:07;;;;;;;8.77;4.03;;;;;;;19.48;34.52;102016.75;5009140;28;20555;-60
2023/05/31 06:30:36;;;;;;;8.23;4.18;;;;;;;19.57;34.67;102022.19;4999958;28;20053;-60
2023/05/31 06:33:04;;;;;;;7.28;4.10;;;;;;;19.69;34.33;102022.78;5004559;28;20044;-61
2023/05/31 06:35:32;;;;;;;7.60;4.20;;;;;;;19.79;34.21;102029.06;5004796;28;20417;-61
2023/05/31 06:38:02;;;;;;;6.50;4.00;;;;;;;19.88;33.54;102029.97;5019052;28;20040;-61
2023/05/31 06:40:30;;;;;;;5.57;3.50;;;;;;;19.99;33.91;102032.47;4998447;28;20075;-61
2023/05/31 06:42:59;;;;;;;5.65;3.35;;;;;;;20.09;33.44;102019.31;5006902;28;20082;-61
2023/05/31 06:45:51;;;;;;;5.30;3.57;;;;;;;20.16;33.69;102025.94;5005875;28;20050;-61
2023/05/31 06:48:39;;;;;;;5.18;3.22;;;;;;;20.26;33.66;102018.31;5006737;28;20312;-61
2023/05/31 06:51:25;;;;;;;6.28;3.53;;;;;;;20.36;33.49;102020.97;5012244;28;20057;-60
2023/05/31 06:54:14;;;;;;;6.90;3.45;;;;;;;20.46;33.16;102021.66;4985079;28;20484;-62
2023/05/31 06:56:42;;;;;;;6.47;3.15;;;;;;;20.53;32.80;102021.84;4998633;28;20045;-61
2023/05/31 06:59:12;;;;;;;5.60;3.42;;;;;;;20.62;32.40;102020.84;5005654;28;20448;-60
2023/05/31 07:01:40;;;;;;;6.43;3.45;;;;;;;20.65;32.56;102015.81;5008034;28;20114;-61
2023/05/31 07:04:08;;;;;;;6.00;3.08;;;;;;;20.72;32.52;102022.41;5017244;28;20267;-62
2023/05/31 07:06:37;;;;;;;7.13;3.15;;;;;;;20.80;32.80;102024.31;5002004;28;20137;-62
2023/05/31 07:09:06;;;;;;;4.63;3.17;;;;;;;20.87;32.45;102017.03;5004887;28;20037;-62
2023/05/31 07:11:39;;;;;;;6.20;3.67;;;;;;;20.98;32.00;102027.81;4998784;28;20046;-62
2023/05/31 07:14:08;;;;;;;6.40;3.00;;;;;;;21.07;32.18;102031.47;5011753;28;20076;-62
2023/05/31 07:16:37;;;;;;;5.07;3.03;;;;;;;21.18;31.92;102030.25;5005620;28;20510;-61
2023/05/31 07:19:06;;;;;;;5.53;3.40;;;;;;;21.25;31.83;102025.69;5002458;28;20056;-61
2023/05/31 07:21:34;;;;;;;5.85;3.47;;;;;;;21.34;31.57;102024.69;5001264;28;20053;-61
2023/05/31 07:24:02;;;;;;;6.95;2.80;;;;;;;21.43;31.49;102026.41;5001742;28;20050;-61
2023/05/31 07:26:30;;;;;;;5.97;3.22;;;;;;;21.50;31.10;102019.94;5015114;28;20100;-61
2023/05/31 07:28:58;;;;;;;5.15;2.88;;;;;;;21.60;31.02;102021.66;5010281;28;20045;-61
2023/05/31 07:31:27;;;;;;;5.22;3.10;;;;;;;21.70;31.37;102016.72;5015850;28;20049;-59
2023/05/31 07:33:57;;;;;;;4.88;3.15;;;;;;;21.79;30.84;102016.50;5021832;28;20519;-60
2023/05/31 07:36:26;;;;;;;4.80;2.78;;;;;;;21.87;30.70;102012.81;5021301;28;20058;-70
2023/05/31 07:38:55;;;;;;;4.75;2.85;;;;;;;21.98;31.05;102019.94;5021658;28;20116;-69
2023/05/31 07:41:23;;;;;;;5.05;2.83;;;;;;;22.06;30.56;102014.34;5019256;28;20078;-68
2023/05/31 07:43:54;;;;;;;4.80;2.80;;;;;;;22.19;30.78;102004.31;5013326;28;20053;-68
2023/05/31 07:46:23;;;;;;;4.80;3.00;;;;;;;22.26;30.62;102013.69;5010189;28;20057;-68
2023/05/31 07:48:53;;;;;;;5.25;2.90;;;;;;;22.39;30.08;102012.22;5015313;28;20516;-72
2023/05/31 07:51:23;;;;;;;4.68;2.78;;;;;;;22.52;30.09;102016.13;5007028;28;20294;-69
2023/05/31 07:53:51;;;;;;;4.85;3.08;;;;;;;22.60;29.47;102012.44;5015564;28;20042;-70
2023/05/31 07:56:19;;;;;;;4.82;2.90;;;;;;;22.70;29.37;102013.06;5010341;28;20053;-69
2023/05/31 07:58:47;;;;;;;5.28;2.53;;;;;;;22.79;29.55;102008.28;5006547;28;20495;-70
2023/05/31 08:01:15;;;;;;;4.35;2.47;;;;;;;22.87;29.28;102006.28;5016563;28;20135;-70
2023/05/31 08:03:43;;;;;;;5.28;2.80;;;;;;;22.97;28.69;102008.81;5013962;28;20125;-70
2023/05/31 08:06:11;;;;;;;4.05;2.30;;;;;;;23.05;28.13;102005.09;5016253;28;20527;-70
2023/05/31 08:08:42;;;;;;;3.53;2.10;;;;;;;23.16;27.95;102001.88;5008498;28;20073;-70
2023/05/31 08:11:10;;;;;;;4.82;2.25;;;;;;;23.20;27.82;102004.09;5013091;28;20575;-70
2023/05/31 08:13:39;;;;;;;4.43;2.45;;;;;;;23.28;27.10;102000.34;5016832;28;20069;-70
2023/05/31 08:16:07;;;;;;;4.97;2.33;;;;;;;23.33;27.09;101998.69;5001160;28;20108;-70
2023/05/31 08:18:35;;;;;;;4.97;2.58;;;;;;;23.38;27.13;102003.72;5009454;28;20049;-70
2023/05/31 08:21:04;;;;;;;4.07;2.22;;;;;;;23.44;26.90;102000.16;5015333;28;20046;-70
2023/05/31 08:23:32;;;;;;;4.80;2.35;;;;;;;23.52;26.99;101991.69;5009848;28;20042;-70
2023/05/31 08:26:02;;;;;;;4.72;1.98;;;;;;;23.62;26.85;101992.28;5011999;28;20124;-70
2023/05/31 08:28:30;;;;;;;4.05;2.45;;;;;;;23.67;26.79;101988.88;5014157;28;20078;-69
2023/05/31 08:30:58;;;;;;;3.25;2.20;;;;;;;23.75;26.41;101981.25;5001877;28;20108;-70
2023/05/31 08:33:30;;;;;;;4.43;2.50;;;;;;;23.85;26.22;101986.59;5011530;28;20104;-70
2023/05/31 08:35:59;;;;;;;4.38;2.17;;;;;;;23.92;26.37;101983.88;5006445;28;20064;-70
2023/05/31 08:38:27;;;;;;;3.80;2.28;;;;;;;23.99;26.62;101977.28;5008257;28;20045;-69
2023/05/31 08:40:58;;;;;;;5.40;2.25;;;;;;;24.11;25.92;101983.25;5001255;28;20054;-70
2023/05/31 08:43:30;;;;;;;3.40;2.10;;;;;;;24.16;25.97;101977.94;5007056;28;20525;-69
2023/05/31 08:45:58;;;;;;;4.47;2.30;;;;;;;24.22;25.63;101977.16;5013186;28;20327;-70
2023/05/31 08:48:34;;;;;;;4.20;2.20;;;;;;;24.32;24.69;101979.66;5021884;28;20042;-70
2023/05/31 08:51:05;;;;;;;4.72;2.30;;;;;;;24.35;25.00;101968.03;5005287;28;20433;-70
2023/05/31 08:53:35;;;;;;;5.03;2.50;;;;;;;24.39;25.04;101970.28;5006461;28;20050;-70
2023/05/31 08:56:05;;;;;;;3.67;2.35;;;;;;;24.43;24.56;101967.94;5011460;28;20065;-70
2023/05/31 08:58:35;;;;;;;4.82;2.30;;;;;;;24.47;24.80;101966.50;5010320;28;20452;-69
2023/05/31 09:01:04;;;;;;;4.90;2.40;;;;;;;24.47;24.43;101960.88;4983319;28;20421;-70
2023/05/31 09:03:33;;;;;;;3.47;2.13;;;;;;;24.51;24.27;101956.59;5008368;28;20091;-70
2023/05/31 09:06:01;;;;;;;5.45;2.30;;;;;;;24.50;24.15;101955.75;5011108;28;20054;-70
2023/05/31 09:08:33;;;;;;;4.38;2.40;;;;;;;24.53;24.18;101965.69;5007836;28;20061;-69
2023/05/31 09:11:02;;;;;;;4.28;2.30;;;;;;;24.55;24.12;101951.50;5009630;28;20053;-70
2023/05/31 09:13:30;;;;;;;3.67;2.25;;;;;;;24.53;23.84;101962.88;5008555;28;20137;-70
2023/05/31 09:16:01;;;;;;;4.70;2.50;;;;;;;24.55;23.65;101954.28;5004981;28;20058;-70
2023/05/31 09:18:37;;;;;;;4.55;2.63;;;;;;;24.56;23.46;101959.69;5012754;28;20050;-70
2023/05/31 09:21:09;;;;;;;5.60;2.58;;;;;;;24.58;23.23;101942.69;5004756;28;20493;-70
2023/05/31 09:23:37;;;;;;;4.80;2.55;;;;;;;24.54;23.50;101949.75;5013163;28;20136;-69
2023/05/31 09:26:07;;;;;;;4.50;2.20;;;;;;;24.58;23.51;101945.47;5014758;28;20124;-69
2023/05/31 09:28:35;;;;;;;4.85;2.33;;;;;;;24.57;23.31;101953.00;5017031;28;20046;-71
2023/05/31 09:31:06;;;;;;;4.00;2.28;;;;;;;24.56;22.16;101944.84;5012201;28;20042;-69
2023/05/31 09:33:38;;;;;;;5.38;2.20;;;;;;;24.60;21.80;101943.34;5011677;28;20053;-69
2023/05/31 09:36:07;;;;;;;3.53;1.92;;;;;;;24.59;22.62;101942.47;4993333;28;20132;-70
2023/05/31 09:38:36;;;;;;;3.25;2.00;;;;;;;24.61;22.29;101934.75;5004298;28;20065;-69
2023/05/31 09:41:17;;;;;;;3.15;1.95;;;;;;;24.61;20.63;101940.34;5006499;28;20125;-69
2023/05/31 09:43:46;;;;;;;4.25;2.05;;;;;;;24.61;21.74;101934.75;5008360;28;20120;-69
2023/05/31 09:46:17;;;;;;;4.18;1.98;;;;;;;24.66;21.75;101936.94;5002903;28;20055;-69
2023/05/31 09:48:46;;;;;;;4.07;2.10;;;;;;;24.67;22.13;101933.06;5007393;28;20744;-69
2023/05/31 09:51:14;;;;;;;4.40;2.40;;;;;;;24.68;22.60;101927.28;4995562;28;20073;-71
2023/05/31 09:53:45;;;;;;;4.10;2.30;;;;;;;24.70;22.11;101927.94;5007960;28;20049;-70
2023/05/31 09:56:19;;;;;;;4.82;2.30;;;;;;;24.77;22.09;101928.88;5012626;28;20357;-70
2023/05/31 09:58:47;;;;;;;5.30;2.40;;;;;;;24.69;22.17;101931.81;4995046;28;20050;-70
2023/05/31 10:01:17;;;;;;;4.88;2.20;;;;;;;24.78;22.12;101930.59;5006704;28;20042;-70
2023/05/31 10:03:46;;;;;;;3.92;2.20;;;;;;;24.78;22.01;101925.00;5015164;28;20128;-70
2023/05/31 10:06:16;;;;;;;6.50;2.17;;;;;;;24.78;21.78;101922.22;5012058;28;20046;-70
2023/05/31 10:08:44;;;;;;;4.28;2.20;;;;;;;24.78;22.01;101912.94;5005691;28;20064;-70
2023/05/31 10:11:15;;;;;;;4.53;2.30;;;;;;;24.80;21.77;101916.41;5005045;28;20053;-70
2023/05/31 10:13:45;;;;;;;3.72;2.20;;;;;;;24.80;21.44;101917.28;5006901;28;20049;-70
2023/05/31 10:16:17;;;;;;;3.70;2.10;;;;;;;24.85;21.56;101911.06;5001745;28;20066;-70
2023/05/31 10:18:50;;;;;;;4.25;2.15;;;;;;;24.88;21.92;101910.66;5008155;28;20045;-70
2023/05/31 10:21:22;;;;;;;3.78;2.08;;;;;;;24.87;21.55;101900.53;5014875;28;20528;-70
2023/05/31 10:23:57;;;;;;;5.43;2.03;;;;;;;24.93;20.66;101908.09;5008227;28;20121;-70
2023/05/31 10:26:32;;;;;;;5.05;2.08;;;;;;;24.95;20.87;101902.31;5009890;28;20061;-70
2023/05/31 10:29:11;;;;;;;4.45;2.20;;;;;;;24.99;20.99;101898.03;5011729;28;20038;-70
2023/05/31 10:31:49;;;;;;;3.60;2.03;;;;;;;24.99;20.27;101890.50;5007712;28;20517;-70
2023/05/31 10:34:21;;;;;;;4.43;2.00;;;;;;;25.00;20.69;101892.22;5007703;28;20112;-70
2023/05/31 10:36:51;;;;;;;4.18;2.13;;;;;;;25.00;21.12;101895.03;5015440;28;20050;-70
2023/05/31 10:39:26;;;;;;;4.38;2.20;;;;;;;25.03;20.03;101889.03;5005123;28;20133;-70
2023/05/31 10:42:04;;;;;;;3.90;2.20;;;;;;;25.00;20.21;101883.81;5009205;28;20054;-69
2023/05/31 10:44:41;;;;;;;3.88;2.20;;;;;;;24.99;19.97;101890.50;5013089;28;20081;-70
2023/05/31 10:47:12;;;;;;;3.75;1.90;;;;;;;25.00;20.95;101888.56;5007770;28;20049;-70
2023/05/31 10:49:43;;;;;;;5.30;2.50;;;;;;;24.95;20.98;101894.78;5003770;28;20517;-70
2023/05/31 10:52:11;;;;;;;4.47;2.47;;;;;;;24.94;20.92;101881.84;5004529;28;20409;-69
2023/05/31 10:54:39;;;;;;;6.80;2.50;;;;;;;24.99;21.14;101878.44;5007247;28;20446;-70
2023/05/31 10:57:10;;;;;;;5.60;2.30;;;;;;;24.97;21.00;101875.00;5004860;28;20145;-70
2023/05/31 10:59:43;;;;;;;5.43;2.40;;;;;;;24.95;20.27;101869.59;5009255;28;20046;-70
2023/05/31 11:02:13;;;;;;;4.35;2.72;;;;;;;24.96;20.74;101873.25;5013232;28;20053;-70
2023/05/31 11:04:41;;;;;;;5.43;2.15;;;;;;;24.90;20.66;101883.28;5006259;28;20069;-70
2023/05/31 11:07:21;;;;;;;4.05;2.40;;;;;;;24.92;19.88;101880.28;5012583;28;20056;-70
2023/05/31 11:09:59;;;;;;;5.10;2.20;;;;;;;24.87;20.04;101876.19;5005158;28;20049;-70
2023/05/31 11:12:33;;;;;;;3.97;2.20;;;;;;;24.88;20.59;101871.44;5013918;28;20077;-71
2023/05/31 11:15:03;;;;;;;3.58;2.10;;;;;;;24.87;21.00;101880.91;5004458;28;20076;-71
2023/05/31 11:17:40;;;;;;;4.63;2.20;;;;;;;24.90;20.89;101872.97;5005998;28;20053;-71
2023/05/31 11:20:15;;;;;;;4.88;2.17;;;;;;;24.91;21.11;101876.63;5005467;28;20460;-71
2023/05/31 11:22:43;;;;;;;3.58;2.08;;;;;;;24.91;21.00;101871.03;4999089;28;20105;-71
2023/05/31 11:25:19;;;;;;;3.83;2.13;;;;;;;24.99;20.44;101867.22;5015765;28;20422;-71
2023/05/31 11:28:06;;;;;;;4.20;2.38;;;;;;;24.96;19.99;101865.72;5004721;28;20050;-70
2023/05/31 11:30:37;;;;;;;5.10;2.45;;;;;;;25.01;20.73;101857.56;5008159;28;20089;-71
2023/05/31 11:33:15;;;;;;;4.65;2.00;;;;;;;25.05;20.03;101858.03;5006682;28;20433;-71
2023/05/31 11:35:43;;;;;;;4.47;2.00;;;;;;;25.06;20.78;101859.75;5009175;28;20141;-71
2023/05/31 11:38:11;;;;;;;5.03;2.05;;;;;;;25.07;20.66;101855.84;5006057;28;20076;-70
2023/05/31 11:40:39;;;;;;;5.38;2.50;;;;;;;25.07;20.12;101862.31;5007882;28;20144;-71